Time;durP1;ratioP1;P1;durP2;ratioP2;P2;SDS_P1;SDS_P2;PMS_P1;PMS_P2;Temp;Humidity;BMP_temperature;BMP_pressure;BME280_temperature;BME280_humidity;BME280_pressure;Samples;Min_cycle;Max_cycle;Signal;HPM_P1;HPM_P2
2023/02/13 00:00:24;;;;;;;1.13;0.40;;;;;;;;;;4147367;28;20264;-40
2023/02/13 00:02:26;;;;;;;0.50;0.40;;;;;;;;;;4147307;28;20107;-40
2023/02/13 00:04:27;;;;;;;0.73;0.38;;;;;;;;;;4129608;28;20062;-40
2023/02/13 00:06:29;;;;;;;0.57;0.40;;;;;;;;;;4147147;28;20054;-40
2023/02/13 00:08:30;;;;;;;0.75;0.50;;;;;;;;;;4146995;28;20496;-41
2023/02/13 00:10:32;;;;;;;0.60;0.40;;;;;;;;;;4147421;28;20103;-40
2023/02/13 00:12:33;;;;;;;0.50;0.40;;;;;;;;;;4146791;28;20560;-40
2023/02/13 00:14:36;;;;;;;0.63;0.35;;;;;;;;;;4147065;28;20054;-41
2023/02/13 00:16:38;;;;;;;0.38;0.20;;;;;;;;;;4147449;28;20060;-40
2023/02/13 00:18:39;;;;;;;0.88;0.40;;;;;;;;;;4157880;28;20575;-41
2023/02/13 00:20:40;;;;;;;1.05;0.32;;;;;;;;;;4147223;28;20096;-41
2023/02/13 00:22:41;;;;;;;0.32;0.30;;;;;;;;;;4147198;28;20413;-41
2023/02/13 00:24:42;;;;;;;0.25;0.20;;;;;;;;;;4146381;28;20107;-40
2023/02/13 00:26:44;;;;;;;0.60;0.30;;;;;;;;;;4147058;28;20413;-41
2023/02/13 00:28:45;;;;;;;0.52;0.32;;;;;;;;;;4129439;28;20055;-40
2023/02/13 00:30:47;;;;;;;0.55;0.40;;;;;;;;;;4146972;28;20432;-41
2023/02/13 00:32:48;;;;;;;0.47;0.40;;;;;;;;;;4146785;28;20058;-40
2023/02/13 00:34:49;;;;;;;0.80;0.40;;;;;;;;;;4146278;28;20108;-41
2023/02/13 00:36:51;;;;;;;0.30;0.30;;;;;;;;;;4147017;28;20460;-40
2023/02/13 00:38:53;;;;;;;0.73;0.47;;;;;;;;;;4129362;28;20086;-40
2023/02/13 00:40:54;;;;;;;1.30;0.30;;;;;;;;;;4146934;28;20456;-40
2023/02/13 00:42:56;;;;;;;0.65;0.28;;;;;;;;;;4146716;28;20092;-40
2023/02/13 00:44:57;;;;;;;0.38;0.30;;;;;;;;;;4146944;28;20390;-40
2023/02/13 00:46:58;;;;;;;0.40;0.30;;;;;;;;;;4129563;28;20112;-40
2023/02/13 00:49:00;;;;;;;0.30;0.30;;;;;;;;;;4146629;28;20054;-40
2023/02/13 00:51:02;;;;;;;0.70;0.40;;;;;;;;;;4146441;28;20057;-40
2023/02/13 00:53:04;;;;;;;0.75;0.35;;;;;;;;;;4129097;28;20050;-40
2023/02/13 00:55:06;;;;;;;0.40;0.30;;;;;;;;;;4146059;28;20484;-41
2023/02/13 00:57:07;;;;;;;0.52;0.43;;;;;;;;;;4146794;28;20053;-40
2023/02/13 00:59:09;;;;;;;0.38;0.20;;;;;;;;;;4155227;28;20497;-40
2023/02/13 01:01:11;;;;;;;0.45;0.40;;;;;;;;;;4146730;28;20057;-40
2023/02/13 01:03:13;;;;;;;0.70;0.40;;;;;;;;;;4146838;28;20456;-40
2023/02/13 01:05:14;;;;;;;0.57;0.40;;;;;;;;;;4149799;28;20053;-40
2023/02/13 01:07:16;;;;;;;0.40;0.30;;;;;;;;;;4149890;28;20096;-40
2023/02/13 01:09:18;;;;;;;1.05;0.38;;;;;;;;;;4132206;28;20132;-40
2023/02/13 01:11:20;;;;;;;0.45;0.30;;;;;;;;;;4149817;28;20347;-42
2023/02/13 01:13:21;;;;;;;0.47;0.20;;;;;;;;;;4149526;28;20061;-40
2023/02/13 01:15:23;;;;;;;0.57;0.40;;;;;;;;;;4142613;28;20398;-41
2023/02/13 01:17:24;;;;;;;0.43;0.43;;;;;;;;;;4149553;28;20050;-40
2023/02/13 01:19:28;;;;;;;0.52;0.40;;;;;;;;;;4149367;28;20416;-41
2023/02/13 01:21:29;;;;;;;0.30;0.20;;;;;;;;;;4132210;28;20058;-40
2023/02/13 01:23:35;;;;;;;0.50;0.40;;;;;;;;;;4132220;28;20058;-40
2023/02/13 01:25:43;;;;;;;0.60;0.40;;;;;;;;;;4149533;28;20120;-41
2023/02/13 01:27:44;;;;;;;0.35;0.20;;;;;;;;;;4149888;28;20477;-40
2023/02/13 01:29:45;;;;;;;0.57;0.43;;;;;;;;;;4149404;28;20057;-40
2023/02/13 01:31:47;;;;;;;0.38;0.30;;;;;;;;;;4149761;28;20057;-40
2023/02/13 01:33:48;;;;;;;0.40;0.20;;;;;;;;;;4148847;28;20089;-40
2023/02/13 01:35:49;;;;;;;0.30;0.20;;;;;;;;;;4132492;28;20081;-40
2023/02/13 01:37:51;;;;;;;0.77;0.50;;;;;;;;;;4149891;28;20054;-41
2023/02/13 01:39:53;;;;;;;0.35;0.30;;;;;;;;;;4149392;28;20057;-40
2023/02/13 01:41:54;;;;;;;0.98;0.50;;;;;;;;;;4149048;28;20084;-41
2023/02/13 01:43:59;;;;;;;0.52;0.32;;;;;;;;;;4131883;28;20081;-40
2023/02/13 01:46:00;;;;;;;0.32;0.20;;;;;;;;;;4115941;28;20059;-40
2023/02/13 01:48:22;;;;;;;0.47;0.30;;;;;;;;;;4149578;28;20069;-40
2023/02/13 01:50:34;;;;;;;0.95;0.47;;;;;;;;;;4136301;28;20079;-40
2023/02/13 01:52:37;;;;;;;0.70;0.30;;;;;;;;;;4131932;28;20097;-40
2023/02/13 01:54:39;;;;;;;0.50;0.20;;;;;;;;;;4131841;28;20050;-40
2023/02/13 01:57:03;;;;;;;0.57;0.40;;;;;;;;;;4148943;28;20054;-40
2023/02/13 01:59:09;;;;;;;0.40;0.30;;;;;;;;;;4133975;28;20054;-40
2023/02/13 02:01:10;;;;;;;0.38;0.20;;;;;;;;;;4116112;28;20054;-40
2023/02/13 02:03:16;;;;;;;0.45;0.28;;;;;;;;;;4131262;28;20054;-40
2023/02/13 02:05:19;;;;;;;0.20;0.20;;;;;;;;;;4148972;28;20062;-40
2023/02/13 02:07:23;;;;;;;0.75;0.20;;;;;;;;;;4131753;28;20093;-40
2023/02/13 02:09:28;;;;;;;0.55;0.30;;;;;;;;;;4131635;28;20054;-40
2023/02/13 02:11:36;;;;;;;0.40;0.20;;;;;;;;;;4131166;28;20085;-41
2023/02/13 02:13:38;;;;;;;0.30;0.30;;;;;;;;;;4107676;28;20102;-40
2023/02/13 02:15:44;;;;;;;0.30;0.30;;;;;;;;;;4129275;28;20105;-40
2023/02/13 02:17:45;;;;;;;0.57;0.25;;;;;;;;;;4142388;28;20413;-40
2023/02/13 02:20:03;;;;;;;0.25;0.20;;;;;;;;;;4130650;28;20054;-40
2023/02/13 02:22:31;;;;;;;0.32;0.30;;;;;;;;;;4131724;28;20108;-40
2023/02/13 02:24:40;;;;;;;0.70;0.40;;;;;;;;;;4131130;28;20108;-39
2023/02/13 02:27:19;;;;;;;0.60;0.35;;;;;;;;;;4148969;28;20089;-40
2023/02/13 02:29:55;;;;;;;0.28;0.28;;;;;;;;;;4131308;28;20101;-41
2023/02/13 02:32:14;;;;;;;0.50;0.25;;;;;;;;;;4133155;28;20061;-40
2023/02/13 02:34:42;;;;;;;0.25;0.17;;;;;;;;;;4130671;28;20050;-40
2023/02/13 02:36:52;;;;;;;0.40;0.30;;;;;;;;;;4138118;28;20501;-40
2023/02/13 02:39:31;;;;;;;0.30;0.30;;;;;;;;;;4131140;28;20050;-40
2023/02/13 02:41:44;;;;;;;0.32;0.20;;;;;;;;;;4136180;28;20057;-39
2023/02/13 02:44:00;;;;;;;0.45;0.30;;;;;;;;;;4131062;28;20145;-40
2023/02/13 02:46:11;;;;;;;0.50;0.40;;;;;;;;;;4115266;28;20098;-40
2023/02/13 02:50:51;;;;;;;0.47;0.20;;;;;;;;;;4144411;28;19928;-40
2023/02/13 02:53:03;;;;;;;0.30;0.30;;;;;;;;;;4131230;28;20062;-40
2023/02/13 02:55:25;;;;;;;0.32;0.30;;;;;;;;;;4115361;28;20058;-40
2023/02/13 03:06:09;;;;;;;0.52;0.30;;;;;;;;;;4130600;28;20517;-40
2023/02/13 03:07:06;;;;;;;0.57;0.30;;;;;;;;;;4128829;28;20058;-40
2023/02/13 03:13:52;;;;;;;;;;;;;;;;;;4124523;28;20133;-40
2023/02/13 03:23:14;;;;;;;0.40;0.20;;;;;;;;;;4131742;28;20129;-40
2023/02/13 03:25:33;;;;;;;0.43;0.40;;;;;;;;;;4130372;28;20128;-41
2023/02/13 03:30:29;;;;;;;0.60;0.20;;;;;;;;;;4128022;28;20053;-40
2023/02/13 03:32:52;;;;;;;0.50;0.43;;;;;;;;;;4130352;28;20050;-40
2023/02/13 03:40:02;;;;;;;0.60;0.30;;;;;;;;;;4125584;28;20446;-40
2023/02/13 03:42:07;;;;;;;0.47;0.40;;;;;;;;;;4129992;28;20477;-40
2023/02/13 03:44:29;;;;;;;0.52;0.30;;;;;;;;;;4130312;28;20054;-40
2023/02/13 03:46:33;;;;;;;0.28;0.20;;;;;;;;;;4142353;28;20076;-41
2023/02/13 03:50:04;;;;;;;0.70;0.35;;;;;;;;;;4129385;28;20050;-40
2023/02/13 03:51:15;;;;;;;0.45;0.30;;;;;;;;;;4124147;28;20526;-41
2023/02/13 03:53:16;;;;;;;0.57;0.40;;;;;;;;;;4130973;28;20160;-40
2023/02/13 04:00:06;;;;;;;0.30;0.25;;;;;;;;;;4130725;28;20055;-40
2023/02/13 04:02:19;;;;;;;0.32;0.20;;;;;;;;;;4129973;28;20058;-41
2023/02/13 04:04:33;;;;;;;0.20;0.20;;;;;;;;;;4125170;28;20391;-40
2023/02/13 04:06:56;;;;;;;0.22;0.20;;;;;;;;;;4130876;28;20058;-41
2023/02/13 04:08:57;;;;;;;0.68;0.40;;;;;;;;;;4131056;28;20146;-41
2023/02/13 04:11:03;;;;;;;0.22;0.22;;;;;;;;;;4129395;28;20057;-40
2023/02/13 04:13:27;;;;;;;0.20;0.20;;;;;;;;;;4132641;28;20100;-40
2023/02/13 04:15:34;;;;;;;0.30;0.25;;;;;;;;;;4129717;28;20101;-40
2023/02/13 04:17:40;;;;;;;0.43;0.40;;;;;;;;;;4147180;28;20058;-40
2023/02/13 04:19:42;;;;;;;0.35;0.28;;;;;;;;;;4146361;28;20057;-40
2023/02/13 04:21:43;;;;;;;0.40;0.30;;;;;;;;;;4129601;28;20050;-40
2023/02/13 04:23:44;;;;;;;0.52;0.30;;;;;;;;;;4146754;28;20119;-40
2023/02/13 04:25:49;;;;;;;0.68;0.30;;;;;;;;;;4146875;28;20076;-41
2023/02/13 04:27:50;;;;;;;0.20;0.20;;;;;;;;;;4129601;28;20057;-40
2023/02/13 04:29:52;;;;;;;0.50;0.20;;;;;;;;;;4129420;28;20058;-40
2023/02/13 04:31:53;;;;;;;0.25;0.20;;;;;;;;;;4146727;28;20054;-39
2023/02/13 04:33:55;;;;;;;0.57;0.25;;;;;;;;;;4146323;28;20505;-40
2023/02/13 04:35:56;;;;;;;0.32;0.20;;;;;;;;;;4146687;28;20061;-41
2023/02/13 04:37:57;;;;;;;0.17;0.17;;;;;;;;;;4146087;28;20630;-40
2023/02/13 04:39:58;;;;;;;0.10;0.10;;;;;;;;;;4146958;28;20104;-40
2023/02/13 04:42:00;;;;;;;0.30;0.20;;;;;;;;;;4140503;28;20339;-40
2023/02/13 04:44:01;;;;;;;0.43;0.20;;;;;;;;;;4146750;28;20046;-40
2023/02/13 04:46:03;;;;;;;0.22;0.22;;;;;;;;;;4146616;28;20399;-40
2023/02/13 04:48:04;;;;;;;0.63;0.28;;;;;;;;;;4146860;28;20429;-40
2023/02/13 04:50:06;;;;;;;0.30;0.20;;;;;;;;;;4146352;28;20053;-40
2023/02/13 04:52:07;;;;;;;0.35;0.28;;;;;;;;;;4146949;28;20064;-40
2023/02/13 04:54:09;;;;;;;0.57;0.22;;;;;;;;;;4146602;28;20061;-40
2023/02/13 04:56:11;;;;;;;0.40;0.25;;;;;;;;;;4146917;28;20054;-40
2023/02/13 04:58:12;;;;;;;0.30;0.30;;;;;;;;;;4146566;28;20081;-40
2023/02/13 05:00:13;;;;;;;0.17;0.17;;;;;;;;;;4146471;28;20128;-40
2023/02/13 05:02:15;;;;;;;0.10;0.10;;;;;;;;;;4146417;28;20539;-40
2023/02/13 05:04:16;;;;;;;0.80;0.20;;;;;;;;;;4146199;28;20435;-41
2023/02/13 05:06:17;;;;;;;0.30;0.25;;;;;;;;;;4146912;28;20066;-41
2023/02/13 05:08:19;;;;;;;0.20;0.20;;;;;;;;;;4129052;28;20073;-40
2023/02/13 05:10:20;;;;;;;0.68;0.30;;;;;;;;;;4146508;28;20057;-40
2023/02/13 05:12:22;;;;;;;0.50;0.28;;;;;;;;;;4137488;28;20062;-40
2023/02/13 05:14:23;;;;;;;0.40;0.20;;;;;;;;;;4145316;28;20104;-40
2023/02/13 05:16:25;;;;;;;0.40;0.40;;;;;;;;;;4146344;28;20100;-40
2023/02/13 05:18:26;;;;;;;0.15;0.10;;;;;;;;;;4146037;28;20541;-40
2023/02/13 05:20:27;;;;;;;0.43;0.30;;;;;;;;;;4146827;28;20058;-40
2023/02/13 05:24:49;;;;;;;0.32;0.30;;;;;;;;;;4146333;28;20053;-41
2023/02/13 05:26:51;;;;;;;0.40;0.20;;;;;;;;;;4146922;28;20149;-40
2023/02/13 05:31:13;;;;;;;1.42;0.55;;;;;;;;;;4145946;28;20116;-40
2023/02/13 05:33:14;;;;;;;1.35;0.20;;;;;;;;;;4145748;28;20394;-40
2023/02/13 05:35:15;;;;;;;1.05;0.30;;;;;;;;;;4146586;28;20552;-40
2023/02/13 05:37:17;;;;;;;0.65;0.30;;;;;;;;;;4146572;28;20057;-40
2023/02/13 05:39:19;;;;;;;0.22;0.20;;;;;;;;;;4128616;28;20081;-40
2023/02/13 05:41:20;;;;;;;0.43;0.30;;;;;;;;;;4146478;28;20061;-40
2023/02/13 05:43:22;;;;;;;0.73;0.40;;;;;;;;;;4146250;28;20057;-40
2023/02/13 05:45:23;;;;;;;0.40;0.20;;;;;;;;;;4146623;28;20449;-40
2023/02/13 05:47:24;;;;;;;0.35;0.32;;;;;;;;;;4128829;28;20054;-40
2023/02/13 05:49:26;;;;;;;0.45;0.25;;;;;;;;;;4147405;28;20065;-40
2023/02/13 05:51:27;;;;;;;0.30;0.22;;;;;;;;;;4149262;28;20049;-41
2023/02/13 05:53:29;;;;;;;0.82;0.30;;;;;;;;;;4149179;28;20120;-41
2023/02/13 05:55:30;;;;;;;0.68;0.40;;;;;;;;;;4149342;28;20466;-41
2023/02/13 05:57:31;;;;;;;0.93;0.28;;;;;;;;;;4131660;28;20267;-40
2023/02/13 05:59:32;;;;;;;0.60;0.30;;;;;;;;;;4149142;28;20092;-40
2023/02/13 06:01:33;;;;;;;0.68;0.30;;;;;;;;;;4143371;28;20126;-40
2023/02/13 06:03:35;;;;;;;0.30;0.20;;;;;;;;;;4146797;28;20448;-41
2023/02/13 06:05:36;;;;;;;0.22;0.20;;;;;;;;;;4146678;28;20108;-40
2023/02/13 06:07:37;;;;;;;0.55;0.30;;;;;;;;;;4147029;28;20452;-40
2023/02/13 06:09:39;;;;;;;0.22;0.10;;;;;;;;;;4146963;28;20412;-39
2023/02/13 06:11:40;;;;;;;0.20;0.20;;;;;;;;;;4149966;28;20088;-40
2023/02/13 06:13:42;;;;;;;0.40;0.25;;;;;;;;;;4148715;28;20461;-39
2023/02/13 06:15:43;;;;;;;0.55;0.55;;;;;;;;;;4147103;28;20053;-40
2023/02/13 06:17:45;;;;;;;0.52;0.30;;;;;;;;;;4147337;28;20081;-39
2023/02/13 06:19:46;;;;;;;0.15;0.15;;;;;;;;;;4146513;28;20064;-40
2023/02/13 06:21:48;;;;;;;0.30;0.20;;;;;;;;;;4146184;28;20109;-40
2023/02/13 06:23:49;;;;;;;1.52;0.30;;;;;;;;;;4112071;28;20083;-40
2023/02/13 06:25:50;;;;;;;1.73;0.30;;;;;;;;;;4127989;28;20058;-40
2023/02/13 06:27:52;;;;;;;1.42;0.30;;;;;;;;;;4143435;28;20050;-40
2023/02/13 06:29:53;;;;;;;0.57;0.30;;;;;;;;;;4125322;28;20468;-40
2023/02/13 06:31:56;;;;;;;0.70;0.45;;;;;;;;;;4137893;28;20054;-39
2023/02/13 06:33:57;;;;;;;0.30;0.30;;;;;;;;;;4140462;28;20099;-40
2023/02/13 06:35:58;;;;;;;0.85;0.30;;;;;;;;;;4144108;28;20058;-39
2023/02/13 06:38:00;;;;;;;1.13;0.38;;;;;;;;;;4142123;28;20522;-40
2023/02/13 06:40:01;;;;;;;1.33;0.50;;;;;;;;;;4146075;28;20057;-40
2023/02/13 06:42:02;;;;;;;0.30;0.30;;;;;;;;;;4144582;28;20050;-40
2023/02/13 06:44:04;;;;;;;0.80;0.30;;;;;;;;;;4143769;28;20435;-39
2023/02/13 06:46:06;;;;;;;0.40;0.20;;;;;;;;;;4143295;28;20084;-40
2023/02/13 06:48:07;;;;;;;1.00;0.30;;;;;;;;;;4137979;28;20061;-39
2023/02/13 06:50:09;;;;;;;1.05;0.40;;;;;;;;;;4143413;28;20066;-40
2023/02/13 06:52:10;;;;;;;1.38;0.20;;;;;;;;;;4127824;28;20054;-39
2023/02/13 06:54:12;;;;;;;0.93;0.40;;;;;;;;;;4142050;28;20057;-39
2023/02/13 06:56:13;;;;;;;0.80;0.20;;;;;;;;;;4143109;28;20097;-39
2023/02/13 06:58:15;;;;;;;0.35;0.30;;;;;;;;;;4140705;28;20054;-40
2023/02/13 07:00:17;;;;;;;0.52;0.30;;;;;;;;;;4141123;28;20477;-40
2023/02/13 07:02:18;;;;;;;0.40;0.30;;;;;;;;;;4136354;28;20108;-39
2023/02/13 07:04:19;;;;;;;0.30;0.20;;;;;;;;;;4125922;28;20102;-40
2023/02/13 07:06:21;;;;;;;0.95;0.30;;;;;;;;;;4129287;28;20057;-40
2023/02/13 07:08:22;;;;;;;0.88;0.30;;;;;;;;;;4134150;28;20412;-40
2023/02/13 07:10:23;;;;;;;0.63;0.20;;;;;;;;;;4121079;28;20497;-40
2023/02/13 07:12:24;;;;;;;0.70;0.40;;;;;;;;;;4135262;28;20085;-40
2023/02/13 07:14:26;;;;;;;0.50;0.30;;;;;;;;;;4116686;28;20690;-39
2023/02/13 07:16:27;;;;;;;0.55;0.30;;;;;;;;;;4138136;28;20054;-40
2023/02/13 07:18:28;;;;;;;1.15;0.50;;;;;;;;;;4137174;28;20062;-40
2023/02/13 07:20:29;;;;;;;0.57;0.40;;;;;;;;;;4134177;28;20063;-40
2023/02/13 07:22:31;;;;;;;0.55;0.30;;;;;;;;;;4107416;28;20058;-39
2023/02/13 07:24:34;;;;;;;0.32;0.20;;;;;;;;;;4108801;28;20121;-39
2023/02/13 07:26:35;;;;;;;0.98;0.40;;;;;;;;;;4133164;28;20058;-40
2023/02/13 07:28:37;;;;;;;1.23;0.35;;;;;;;;;;4110252;28;20565;-39
2023/02/13 07:30:38;;;;;;;1.08;0.40;;;;;;;;;;4117775;28;20050;-39
2023/02/13 07:32:40;;;;;;;1.23;0.30;;;;;;;;;;4121967;28;20050;-39
2023/02/13 07:34:41;;;;;;;1.25;0.40;;;;;;;;;;4122144;28;20211;-39
2023/02/13 07:36:42;;;;;;;1.00;0.40;;;;;;;;;;4096476;28;20058;-39
2023/02/13 07:38:43;;;;;;;0.40;0.20;;;;;;;;;;4136409;28;20108;-39
2023/02/13 07:40:45;;;;;;;2.17;0.60;;;;;;;;;;4128677;28;20582;-38
2023/02/13 07:42:46;;;;;;;1.33;0.20;;;;;;;;;;4132646;28;20111;-38
2023/02/13 07:44:48;;;;;;;0.77;0.40;;;;;;;;;;4132811;28;20093;-38
2023/02/13 07:46:49;;;;;;;1.17;0.35;;;;;;;;;;4096542;28;20158;-39
2023/02/13 07:48:52;;;;;;;1.00;0.45;;;;;;;;;;4117400;28;20054;-38
2023/02/13 07:50:54;;;;;;;1.00;0.30;;;;;;;;;;4113610;28;20819;-38
2023/02/13 07:53:00;;;;;;;0.65;0.32;;;;;;;;;;4122420;28;20514;-38
2023/02/13 07:55:02;;;;;;;1.88;0.63;;;;;;;;;;4117855;28;20841;-38
2023/02/13 07:57:04;;;;;;;0.55;0.40;;;;;;;;;;4119112;28;21836;-38
2023/02/13 07:59:05;;;;;;;1.13;0.28;;;;;;;;;;4094773;28;20058;-38
2023/02/13 08:01:12;;;;;;;0.30;0.30;;;;;;;;;;4115673;28;20100;-38
2023/02/13 08:03:13;;;;;;;0.82;0.40;;;;;;;;;;4120856;28;20179;-38
2023/02/13 08:05:14;;;;;;;1.48;0.40;;;;;;;;;;4126117;28;20061;-38
2023/02/13 08:07:16;;;;;;;1.65;0.40;;;;;;;;;;4134663;28;20559;-38
2023/02/13 08:11:52;;;;;;;0.50;0.40;;;;;;;;;;4128950;28;21853;-38
2023/02/13 08:13:54;;;;;;;0.52;0.30;;;;;;;;;;4112267;28;20120;-38
2023/02/13 08:15:55;;;;;;;3.03;0.32;;;;;;;;;;4108719;28;20153;-37
2023/02/13 08:17:56;;;;;;;0.43;0.40;;;;;;;;;;4108009;28;20568;-38
2023/02/13 08:19:58;;;;;;;0.77;0.28;;;;;;;;;;4129325;28;20080;-38
2023/02/13 08:22:00;;;;;;;0.60;0.30;;;;;;;;;;4130427;28;20046;-38
2023/02/13 08:24:01;;;;;;;0.98;0.50;;;;;;;;;;4131496;28;20057;-37
2023/02/13 08:26:02;;;;;;;0.88;0.20;;;;;;;;;;4131495;28;20124;-38
2023/02/13 08:28:04;;;;;;;0.80;0.38;;;;;;;;;;4112381;28;20054;-38
2023/02/13 08:30:07;;;;;;;0.70;0.30;;;;;;;;;;4102422;28;20054;-37
2023/02/13 08:32:09;;;;;;;1.30;0.60;;;;;;;;;;4092832;28;20159;-40
2023/02/13 08:34:10;;;;;;;0.95;0.30;;;;;;;;;;4111528;28;20058;-39
2023/02/13 08:36:11;;;;;;;1.95;0.55;;;;;;;;;;4109980;28;20111;-39
2023/02/13 08:38:13;;;;;;;0.75;0.35;;;;;;;;;;4119414;28;20054;-40
2023/02/13 08:40:15;;;;;;;1.95;0.38;;;;;;;;;;4115359;28;20419;-39
2023/02/13 08:42:16;;;;;;;2.15;0.57;;;;;;;;;;4110440;28;20501;-40
2023/02/13 08:44:17;;;;;;;0.90;0.40;;;;;;;;;;4095649;28;20564;-39
2023/02/13 08:46:19;;;;;;;1.73;0.30;;;;;;;;;;4110943;28;20062;-38
2023/02/13 08:48:20;;;;;;;1.90;0.30;;;;;;;;;;4109012;28;20199;-40
2023/02/13 08:50:22;;;;;;;0.60;0.40;;;;;;;;;;4093783;28;20125;-39
2023/02/13 08:52:24;;;;;;;3.15;0.30;;;;;;;;;;4113055;28;20994;-38
2023/02/13 08:54:26;;;;;;;0.52;0.30;;;;;;;;;;4112538;28;20092;-38
2023/02/13 08:56:27;;;;;;;0.68;0.30;;;;;;;;;;4116215;28;20124;-39
2023/02/13 08:58:29;;;;;;;0.68;0.40;;;;;;;;;;4112878;28;20119;-40
2023/02/13 09:00:31;;;;;;;1.33;0.50;;;;;;;;;;4097585;28;20065;-40
2023/02/13 09:02:32;;;;;;;0.60;0.35;;;;;;;;;;4103782;28;20093;-40
2023/02/13 09:04:33;;;;;;;2.88;0.40;;;;;;;;;;4099722;28;20058;-40
2023/02/13 09:06:35;;;;;;;0.50;0.30;;;;;;;;;;4119694;28;20787;-40
2023/02/13 09:08:36;;;;;;;1.00;0.30;;;;;;;;;;4118563;28;20054;-40
2023/02/13 09:10:39;;;;;;;1.90;0.38;;;;;;;;;;4117717;28;20540;-42
2023/02/13 09:12:41;;;;;;;3.40;0.40;;;;;;;;;;4112498;28;20441;-40
2023/02/13 09:14:42;;;;;;;0.93;0.38;;;;;;;;;;4091169;28;20707;-40
2023/02/13 09:16:43;;;;;;;0.55;0.28;;;;;;;;;;4099543;28;20466;-40
2023/02/13 09:18:49;;;;;;;1.77;0.50;;;;;;;;;;4123109;28;20108;-40
2023/02/13 09:20:56;;;;;;;0.38;0.22;;;;;;;;;;4103458;28;20384;-40
2023/02/13 09:22:57;;;;;;;1.98;0.50;;;;;;;;;;4121531;28;20073;-40
2023/02/13 09:25:02;;;;;;;0.45;0.30;;;;;;;;;;4117609;28;20291;-39
2023/02/13 09:27:04;;;;;;;0.35;0.35;;;;;;;;;;4112770;28;20160;-39
2023/02/13 09:29:05;;;;;;;0.63;0.30;;;;;;;;;;4094383;28;20058;-39
2023/02/13 09:31:09;;;;;;;0.63;0.30;;;;;;;;;;4096461;28;20461;-39
2023/02/13 09:33:11;;;;;;;1.33;0.43;;;;;;;;;;4119707;28;20605;-39
2023/02/13 09:35:13;;;;;;;1.55;0.30;;;;;;;;;;4117544;28;20058;-39
2023/02/13 09:37:15;;;;;;;0.65;0.32;;;;;;;;;;4124463;28;20054;-39
2023/02/13 09:39:16;;;;;;;1.00;0.28;;;;;;;;;;4114378;28;20053;-39
2023/02/13 09:41:22;;;;;;;0.77;0.30;;;;;;;;;;4118865;28;20053;-39
2023/02/13 09:43:33;;;;;;;0.77;0.17;;;;;;;;;;4072289;28;20566;-40
2023/02/13 09:45:35;;;;;;;0.45;0.28;;;;;;;;;;4102196;28;20058;-40
2023/02/13 09:47:40;;;;;;;0.50;0.28;;;;;;;;;;4121290;28;20058;-40
2023/02/13 09:49:49;;;;;;;0.52;0.32;;;;;;;;;;4102309;28;20061;-40
2023/02/13 09:51:54;;;;;;;0.75;0.25;;;;;;;;;;4113840;28;20745;-40
2023/02/13 09:53:58;;;;;;;0.93;0.40;;;;;;;;;;4117827;28;20061;-41
2023/02/13 09:56:05;;;;;;;0.30;0.20;;;;;;;;;;4100420;28;20062;-40
2023/02/13 09:58:19;;;;;;;0.47;0.30;;;;;;;;;;4119250;28;20061;-40
2023/02/13 10:00:27;;;;;;;0.68;0.40;;;;;;;;;;4112762;28;20064;-40
2023/02/13 10:02:46;;;;;;;3.55;0.40;;;;;;;;;;4115631;28;20272;-40
2023/02/13 10:05:08;;;;;;;0.70;0.28;;;;;;;;;;4124965;28;20139;-39
2023/02/13 10:07:43;;;;;;;0.65;0.30;;;;;;;;;;4088701;28;21419;-39
2023/02/13 10:10:06;;;;;;;0.73;0.43;;;;;;;;;;4118235;28;20062;-40
2023/02/13 10:12:26;;;;;;;2.20;0.30;;;;;;;;;;4127147;28;20046;-40
2023/02/13 10:14:34;;;;;;;1.25;0.40;;;;;;;;;;4108661;28;20168;-40
2023/02/13 10:16:41;;;;;;;1.15;0.40;;;;;;;;;;4109696;28;20053;-40
2023/02/13 10:19:24;;;;;;;1.23;0.20;;;;;;;;;;4092770;28;20054;-40
2023/02/13 10:21:41;;;;;;;1.08;0.57;;;;;;;;;;4109178;28;20714;-40
2023/02/13 10:23:46;;;;;;;0.98;0.30;;;;;;;;;;4092482;28;20134;-40
2023/02/13 10:25:53;;;;;;;0.57;0.25;;;;;;;;;;4087837;28;20070;-40
2023/02/13 10:27:59;;;;;;;0.40;0.30;;;;;;;;;;4105826;28;20066;-39
2023/02/13 10:30:19;;;;;;;1.42;0.40;;;;;;;;;;4105547;28;20062;-38
2023/02/13 10:32:24;;;;;;;0.60;0.40;;;;;;;;;;4089777;28;20054;-38
2023/02/13 10:34:27;;;;;;;0.65;0.30;;;;;;;;;;4090389;28;20062;-39
2023/02/13 10:36:33;;;;;;;0.68;0.40;;;;;;;;;;4076387;28;20064;-39
2023/02/13 10:38:40;;;;;;;0.63;0.30;;;;;;;;;;4104018;28;20113;-39
2023/02/13 10:40:58;;;;;;;1.10;0.22;;;;;;;;;;4094832;28;20065;-38
2023/02/13 10:43:18;;;;;;;1.38;0.55;;;;;;;;;;4088636;28;20058;-38
2023/02/13 10:45:42;;;;;;;4.47;0.40;;;;;;;;;;4103173;28;20115;-38
2023/02/13 10:47:57;;;;;;;1.48;0.30;;;;;;;;;;4079371;28;20118;-38
2023/02/13 10:50:14;;;;;;;1.55;0.35;;;;;;;;;;4104902;28;20472;-38
2023/02/13 10:52:26;;;;;;;1.38;0.20;;;;;;;;;;4106644;28;20054;-38
2023/02/13 10:54:55;;;;;;;1.30;0.40;;;;;;;;;;4109914;28;20145;-39
2023/02/13 10:57:04;;;;;;;1.10;0.32;;;;;;;;;;4115082;28;20113;-39
2023/02/13 10:59:35;;;;;;;1.02;0.30;;;;;;;;;;4096387;28;20762;-38
2023/02/13 11:01:45;;;;;;;0.40;0.30;;;;;;;;;;4116614;28;20054;-38
2023/02/13 11:03:48;;;;;;;2.38;0.40;;;;;;;;;;4099924;28;20105;-38
2023/02/13 11:05:51;;;;;;;0.45;0.30;;;;;;;;;;4108603;28;20426;-38
2023/02/13 11:07:52;;;;;;;1.42;0.50;;;;;;;;;;4115892;28;20058;-38
2023/02/13 11:09:58;;;;;;;4.40;0.57;;;;;;;;;;4115385;28;20136;-38
2023/02/13 11:12:25;;;;;;;1.05;0.40;;;;;;;;;;4079810;28;20055;-38
2023/02/13 11:14:26;;;;;;;1.27;0.60;;;;;;;;;;4127046;28;20599;-38
2023/02/13 11:16:37;;;;;;;0.95;0.38;;;;;;;;;;4124386;28;20065;-38
2023/02/13 11:18:40;;;;;;;2.58;0.40;;;;;;;;;;4117785;28;20058;-38
2023/02/13 11:20:48;;;;;;;0.55;0.30;;;;;;;;;;4126921;28;20057;-41
2023/02/13 11:22:50;;;;;;;1.38;0.65;;;;;;;;;;4104165;28;20065;-41
2023/02/13 11:24:58;;;;;;;0.63;0.50;;;;;;;;;;4093121;28;20058;-39
2023/02/13 11:27:08;;;;;;;2.58;0.52;;;;;;;;;;4120912;28;20123;-40
2023/02/13 11:29:20;;;;;;;1.70;0.45;;;;;;;;;;4121686;28;20057;-39
2023/02/13 11:31:32;;;;;;;1.83;0.52;;;;;;;;;;4117622;28;20469;-40
2023/02/13 11:33:33;;;;;;;0.85;0.30;;;;;;;;;;4118645;28;20066;-40
2023/02/13 11:35:35;;;;;;;0.90;0.30;;;;;;;;;;4126525;28;21426;-39
2023/02/13 11:37:37;;;;;;;0.45;0.30;;;;;;;;;;4117846;28;20069;-39
2023/02/13 11:39:42;;;;;;;1.00;0.63;;;;;;;;;;4115844;28;20069;-39
2023/02/13 11:41:45;;;;;;;1.33;0.40;;;;;;;;;;4119652;28;20054;-38
2023/02/13 11:43:49;;;;;;;0.50;0.40;;;;;;;;;;4123065;28;20065;-39
2023/02/13 11:46:03;;;;;;;2.22;0.30;;;;;;;;;;4108662;28;20506;-38
2023/02/13 11:48:09;;;;;;;0.75;0.40;;;;;;;;;;4120374;28;20065;-38
2023/02/13 11:50:28;;;;;;;1.85;0.50;;;;;;;;;;4107506;28;20448;-38
2023/02/13 11:52:34;;;;;;;0.50;0.25;;;;;;;;;;4104170;28;20062;-39
2023/02/13 11:54:41;;;;;;;0.68;0.38;;;;;;;;;;4111718;28;20391;-39
2023/02/13 11:56:56;;;;;;;0.70;0.30;;;;;;;;;;4095836;28;20058;-39
2023/02/13 11:59:02;;;;;;;0.80;0.38;;;;;;;;;;4103384;28;20058;-39
2023/02/13 12:01:18;;;;;;;0.85;0.35;;;;;;;;;;4117743;28;20084;-38
2023/02/13 12:03:28;;;;;;;2.00;0.45;;;;;;;;;;4117393;28;20138;-40
2023/02/13 12:05:29;;;;;;;0.60;0.50;;;;;;;;;;4102063;28;20132;-40
2023/02/13 12:07:33;;;;;;;0.52;0.30;;;;;;;;;;4117506;28;20104;-39
2023/02/13 12:09:38;;;;;;;0.52;0.35;;;;;;;;;;4117879;28;20155;-39
2023/02/13 12:11:46;;;;;;;1.45;0.40;;;;;;;;;;4121124;28;20582;-41
2023/02/13 12:13:48;;;;;;;0.73;0.35;;;;;;;;;;4102249;28;20058;-40
2023/02/13 12:15:56;;;;;;;0.95;0.38;;;;;;;;;;4100279;28;20481;-40
2023/02/13 12:18:07;;;;;;;2.80;0.60;;;;;;;;;;4125512;28;20555;-40
2023/02/13 12:20:15;;;;;;;0.93;0.47;;;;;;;;;;4121664;28;20425;-39
2023/02/13 12:22:38;;;;;;;1.77;0.40;;;;;;;;;;4123619;28;20648;-40
2023/02/13 12:24:52;;;;;;;1.92;0.35;;;;;;;;;;4116902;28;21714;-38
2023/02/13 12:27:14;;;;;;;0.63;0.20;;;;;;;;;;4117884;28;20583;-39
2023/02/13 12:29:45;;;;;;;0.63;0.25;;;;;;;;;;4105625;28;20054;-39
2023/02/13 12:32:12;;;;;;;2.13;0.85;;;;;;;;;;4105807;28;20053;-40
2023/02/13 12:34:14;;;;;;;1.27;0.47;;;;;;;;;;4088793;28;20106;-40
2023/02/13 12:36:24;;;;;;;1.05;0.35;;;;;;;;;;4115623;28;20493;-38
2023/02/13 12:38:36;;;;;;;0.77;0.40;;;;;;;;;;4120806;28;20093;-37
2023/02/13 12:41:02;;;;;;;2.67;0.40;;;;;;;;;;4103996;28;20081;-41
2023/02/13 12:43:03;;;;;;;1.88;0.20;;;;;;;;;;4120694;28;20061;-38
2023/02/13 12:45:08;;;;;;;1.42;0.50;;;;;;;;;;4113070;28;20543;-38
2023/02/13 12:47:21;;;;;;;1.35;0.40;;;;;;;;;;4122970;28;20057;-37
2023/02/13 12:49:25;;;;;;;0.52;0.40;;;;;;;;;;4120580;28;20525;-40
2023/02/13 12:51:35;;;;;;;0.73;0.35;;;;;;;;;;4118557;28;20053;-39
2023/02/13 12:53:55;;;;;;;0.35;0.25;;;;;;;;;;4125405;28;20120;-38
2023/02/13 12:56:00;;;;;;;3.83;0.73;;;;;;;;;;4121744;28;20061;-39
2023/02/13 12:58:20;;;;;;;1.67;0.60;;;;;;;;;;4083535;28;20058;-39
2023/02/13 13:00:29;;;;;;;4.07;0.40;;;;;;;;;;4109642;28;20062;-39
2023/02/13 13:02:50;;;;;;;3.40;0.63;;;;;;;;;;4116970;28;20512;-39
2023/02/13 13:05:13;;;;;;;1.85;0.40;;;;;;;;;;4103433;28;20820;-39
2023/02/13 13:07:50;;;;;;;1.10;0.60;;;;;;;;;;4121678;28;20053;-40
2023/02/13 13:09:55;;;;;;;0.93;0.70;;;;;;;;;;4123293;28;20054;-38
2023/02/13 13:12:21;;;;;;;1.05;0.35;;;;;;;;;;4097468;28;20054;-40
2023/02/13 13:14:37;;;;;;;4.15;0.32;;;;;;;;;;4100933;28;20081;-40
2023/02/13 13:17:26;;;;;;;0.95;0.40;;;;;;;;;;4118055;28;20054;-39